Forecasts are only available for sites displaying the forecast symbol.

Some water levels are actually in metres AHD (Australian Height Datum), click individual sites for more details.

Scroll for more >

River gauges, storages, and weirs in the Murray–Darling Basin

Typesort descending Location River Water level Flow Volume Release Water temp Salinity Rainfall
River Gauge Doctors Point Murray 2.56 m 15/04/2021 10:45 9261 ML/Day 15/04/2021 10:45 Not measured Not measured 18.9°C 15/04/2021 10:45 52.3 μS/cm 15/04/2021 10:45 Not measured Full data
River Gauge Kerang Loddon 0.34 m 15/04/2021 10:45 175 ML/Day 15/04/2021 10:45 Not measured Not measured 15.0°C 15/04/2021 10:45 97.3 μS/cm 15/04/2021 10:45 Not measured Full data
River Gauge Morgan Downstream Murray Not measured Not measured Not measured 2904.4 ML/d15/04/2021 9:45 Not measured 263.9 μS/cm 15/04/2021 9:45 Not measured Full data
River Gauge Frenchman Creek Murray 27.34 m 15/04/2021 7:45 Not measured Not measured 1200.3 ML/d15/04/2021 7:45 Not measured Not measured Not measured Full data
River Gauge Edward River Offtake Murray 2.43 m 15/04/2021 11:00 1573 ML/Day 15/04/2021 11:00 Not measured Not measured 17.6°C 15/04/2021 10:45 57.6 μS/cm 15/04/2021 9:45 Not measured Full data
River Gauge Barmah Choke Murray 2.35 m 15/04/2021 10:45 6695 ML/Day 15/04/2021 10:45 Not measured Not measured Not measured Not measured Not measured Full data
River Gauge Lake Albert Murray 0.59 m 15/04/2021 5:45 Not measured 244 GL 15/04/2021 5:45 Not measured Not measured Not measured Not measured Full data
River Gauge Wakool Junction Murray 2.06 m 15/04/2021 10:45 4210 ML/Day 15/04/2021 10:45 Not measured Not measured 16.9°C 15/04/2021 10:45 91.7 μS/cm 15/04/2021 10:45 Not measured Full data
River Gauge Albury (Union Bridge) Murray 1.6 m 15/04/2021 10:45 Not measured Not measured Not measured 18.6°C 15/04/2021 11:00 47.0 μS/cm 15/04/2021 10:45 Not measured Full data
River Gauge Hinnomunjie Mitta 0.6 m 15/04/2021 10:45 329 ML/Day 15/04/2021 10:45 Not measured Not measured 11.4°C 15/04/2021 10:45 34.3 μS/cm 15/04/2021 10:45 0.00 mm 14/04/2021 9:00 Full data
River Gauge Gulpa Creek Offtake Murray 2.44 m 15/04/2021 9:45 268 ML/Day 15/04/2021 9:45 Not measured Not measured Not measured Not measured Not measured Full data
River Gauge Redcliffs Murray Not measured Not measured Not measured Not measured Not measured 105.3 μS/cm 15/04/2021 7:45 Not measured Full data
River Gauge Tauwitchere Barrage Murray 0.54 m 15/04/2021 9:45 Not measured Not measured Not measured Not measured Not measured Not measured Full data
River Gauge Corowa Murray 2.34 m 15/04/2021 10:45 10433 ML/Day 15/04/2021 10:45 Not measured Not measured 18.0°C 15/04/2021 11:00 49.0 μS/cm 15/04/2021 10:45 Not measured Full data
River Gauge Rufus River Murray 20.39 m 15/04/2021 7:45 Not measured Not measured 1862.3 ML/d15/04/2021 7:45 Not measured 168.4 μS/cm 15/04/2021 9:45 Not measured Full data
River Gauge Echuca Wharf Murray 86.86 m 15/04/2021 7:45 Not measured Not measured Not measured Not measured Not measured Not measured Full data
River Gauge Wakool Canal Wakool 0.67 m 15/04/2021 9:45 Not measured Not measured 800.1 ML/d15/04/2021 8:45 Not measured Not measured Not measured Full data
River Gauge Wilcania Darling 5.11 m 15/04/2021 9:45 11632 ML/Day 15/04/2021 9:45 Not measured Not measured 20.4°C 15/04/2021 9:45 303.2 μS/cm 15/04/2021 9:45 Not measured Full data
River Gauge Mundoo Barrage Murray 0.54 m 15/04/2021 7:45 Not measured Not measured Not measured Not measured Not measured Not measured Full data
River Gauge Colignan Murray 1.76 m 15/04/2021 10:45 5517 ML/Day 15/04/2021 10:45 Not measured Not measured 17.7°C 15/04/2021 10:45 -175.5 μS/cm 15/04/2021 10:45 Not measured Full data
River Gauge Colemans Mitta 0.95 m 15/04/2021 10:45 244 ML/Day 15/04/2021 10:45 Not measured Not measured 10.2°C 15/04/2021 10:45 60.7 μS/cm 15/04/2021 10:45 Not measured Full data
River Gauge Biggara Murray 0.43 m 15/04/2021 10:45 468 ML/Day 15/04/2021 10:45 Not measured Not measured 12.3°C 15/04/2021 11:00 41.2 μS/cm 15/04/2021 11:00 0.00 mm 15/04/2021 9:00 Full data
River Gauge Tallandoon Mitta 1.37 m 15/04/2021 10:45 517 ML/Day 15/04/2021 10:45 Not measured Not measured 13.0°C 15/04/2021 10:45 53.8 μS/cm 15/04/2021 10:45 Not measured Full data
River Gauge Bringenbrong Bridge Murray 1.24 m 15/04/2021 10:45 2243 ML/Day 15/04/2021 10:45 Not measured Not measured Not measured Not measured Not measured Full data
River Gauge Weir 32 Upstream Darling 1.42 m 15/04/2021 10:45 307 ML/Day 15/04/2021 10:45 Not measured Not measured 18.5°C 15/04/2021 10:45 393.7 μS/cm 15/04/2021 10:45 Not measured Full data
River Gauge Yarrawonga Main Channel Murray 123.59 m 15/04/2021 10:45 Not measured Not measured 1101.2 ML/d15/04/2021 10:45 Not measured Not measured Not measured Full data
River Gauge Balranald Murrumbidgee 1.86 m 15/04/2021 10:45 1441 ML/Day 15/04/2021 10:45 Not measured Not measured 18.3°C 15/04/2021 10:45 116.5 μS/cm 15/04/2021 10:45 Not measured Full data
River Gauge Flow to South Australia Murray Not measured Not measured Not measured 5224.5 ML/d15/04/2021 7:45 Not measured Not measured Not measured Full data
River Gauge Torrumbarry Headworks Murray 85.16 m 15/04/2021 10:45 Not measured Not measured 2180.2 ML/d15/04/2021 10:45 Not measured Not measured Not measured Full data
River Gauge Pinegrove Murray 1.14 m 15/04/2021 11:00 315 ML/Day 15/04/2021 11:00 Not measured Not measured 12.7°C 15/04/2021 11:00 50.6 μS/cm 15/04/2021 11:00 0.00 mm 15/04/2021 9:00 Full data
River Gauge Burtundy Darling 0.75 m 15/04/2021 10:15 203 ML/Day 15/04/2021 10:15 Not measured Not measured 16.9°C 15/04/2021 10:15 446.0 μS/cm 15/04/2021 10:15 Not measured Full data
River Gauge Mulwala Canal Murray Not measured Not measured Not measured 2699.3 ML/d15/04/2021 8:45 Not measured Not measured Not measured Full data
River Gauge Peechelba Ovens 126.39 m 15/04/2021 10:45 452 ML/Day 15/04/2021 10:45 Not measured Not measured 15.2°C 15/04/2021 10:45 54.6 μS/cm 15/04/2021 10:45 Not measured Full data
River Gauge Murray Bridge Murray 0.53 m 15/04/2021 9:45 Not measured Not measured Not measured 19.3°C 15/04/2021 9:45 282.9 μS/cm 15/04/2021 9:45 Not measured Full data
River Gauge Stoney Crossing Murray 1.3 m 15/04/2021 9:45 259 ML/Day 15/04/2021 9:45 Not measured 263.0 ML/d15/04/2021 7:45 17.4°C 15/04/2021 10:45 188.9 μS/cm 15/04/2021 9:45 Not measured Full data
River Gauge Jingellic Murray 1.55 m 15/04/2021 10:45 3479 ML/Day 15/04/2021 10:45 Not measured Not measured 14.4°C 15/04/2021 10:45 37.5 μS/cm 15/04/2021 10:45 0.00 mm 14/04/2021 9:00 Full data
River Gauge McCoy Bridge Goulburn 1.77 m 15/04/2021 10:45 1453 ML/Day 15/04/2021 10:45 Not measured Not measured 16.8°C 15/04/2021 10:45 66.6 μS/cm 15/04/2021 10:45 Not measured Full data
River Gauge Bandiana Kiewa 0.94 m 15/04/2021 10:45 404 ML/Day 15/04/2021 10:45 Not measured Not measured 13.3°C 15/04/2021 10:45 41.0 μS/cm 15/04/2021 10:45 Not measured Full data
River Gauge Tocumwal Murray 2.04 m 15/04/2021 10:45 8862 ML/Day 15/04/2021 10:45 Not measured Not measured 17.2°C 15/04/2021 10:45 61.3 μS/cm 15/04/2021 10:45 Not measured Full data
River Gauge Edward Escape Wakool 0.71 m 15/04/2021 9:45 641 ML/Day 15/04/2021 9:45 Not measured Not measured 16.9°C 15/04/2021 9:45 60.9 μS/cm 15/04/2021 9:45 Not measured Full data
River Gauge Rochester Campaspe 1.65 m 15/04/2021 10:45 51 ML/Day 15/04/2021 10:45 Not measured Not measured 15.6°C 15/04/2021 10:45 650.9 μS/cm 15/04/2021 10:45 0.00 mm 14/04/2021 9:00 Full data
River Gauge Lake Alexandrina Murray 0.59 m 15/04/2021 5:45 Not measured 1508 GL 15/04/2021 5:45 Not measured Not measured 719.3 μS/cm 15/04/2021 9:45 Not measured Full data
River Gauge Swan Hill Murray 0.83 m 15/04/2021 10:45 3498 ML/Day 15/04/2021 10:45 Not measured Not measured 17.3°C 15/04/2021 10:45 82.3 μS/cm 15/04/2021 10:45 Not measured Full data
Storage Lake Victoria Murray 22.52 m 15/04/2021 9:45 Not measured 202 GL 15/04/2021 9:45 Not measured -8190.0°C 12/04/2021 5:45 194.2 μS/cm 7/04/2021 11:45 Not measured Full data
Storage Dartmouth Dam Mitta 461.63 m 15/04/2021 10:45 Not measured 2454 GL 15/04/2021 10:45 Not measured Not measured Not measured Not measured Full data
Storage Menindee Lakes Darling Not measured Not measured 327 GL 14/04/2021 7:45 Not measured Not measured Not measured Not measured Full data
Storage Hume Dam Murray 181.9 m 15/04/2021 10:45 Not measured 1363 GL 15/04/2021 11:00 8560.0 ML/d15/04/2021 8:00 Not measured Not measured 0.00 mm 14/04/2021 9:00 Full data
Weirs Steven's Weir Upstream Edward 4.7 m 15/04/2021 11:00 Not measured Not measured Not measured Not measured Not measured Not measured Full data
Weirs Lock 5 Downstream Murray 13.31 m 15/04/2021 9:45 Not measured Not measured Not measured Not measured Not measured Not measured Full data
Weirs Euston Weir Upstream Murray 47.6 m 15/04/2021 8:45 Not measured 37 GL 14/04/2021 7:45 Not measured Not measured Not measured 145.9 mm 5/03/2020 9:00 Full data
Weirs Lock 1 Downstream Murray 0.53 m 15/04/2021 9:45 Not measured Not measured 3008.4 ML/d15/04/2021 7:45 Not measured Not measured Not measured Full data
Weirs Steven's Weir Downstream Edward 1.04 m 15/04/2021 9:45 744 ML/Day 15/04/2021 9:45 Not measured Not measured 16.9°C 15/04/2021 9:45 63.4 μS/cm 15/04/2021 9:45 Not measured Full data
Weirs Lock 5 Upstream Murray 16.31 m 15/04/2021 9:45 Not measured Not measured Not measured 19.3°C 15/04/2021 9:45 180.7 μS/cm 15/04/2021 9:45 Not measured Full data
Weirs Lock 4 Downstream Murray 10.26 m 15/04/2021 9:45 Not measured Not measured Not measured Not measured Not measured Not measured Full data
Weirs Euston Weir Downstream Murray 42.96 m 15/04/2021 10:45 5502 ML/Day 15/04/2021 10:45 Not measured Not measured 17.2°C 15/04/2021 10:45 116.0 μS/cm 15/04/2021 10:45 Not measured Full data
Weirs Lock 4 Upstream Murray 13.22 m 15/04/2021 9:30 Not measured Not measured Not measured Not measured Not measured Not measured Full data
Weirs Yarrawonga Weir Upstream Murray 124.88 m 15/04/2021 10:45 Not measured Not measured Not measured Not measured Not measured 0.00 mm 14/04/2021 9:00 Full data
Weirs Lock 7 Downstream Murray 20.12 m 15/04/2021 9:45 Not measured Not measured Not measured Not measured Not measured Not measured Full data
Weirs Torrumbarry Weir Downstream Murray 1.87 m 15/04/2021 10:45 5068 ML/Day 15/04/2021 10:45 Not measured Not measured 18.8°C 15/04/2021 10:45 75.1 μS/cm 15/04/2021 10:45 Not measured Full data
Weirs Wentworth Weir Murray 27.54 m 15/04/2021 10:45 Not measured Not measured 5284.6 ML/d15/04/2021 8:45 Not measured 104.0 μS/cm 15/04/2021 7:45 Not measured Full data
Weirs Lock 3 Downstream Murray 6.3 m 15/04/2021 9:45 Not measured Not measured Not measured Not measured Not measured Not measured Full data
Weirs Mildura Weir downstream Murray 30.88 m 15/04/2021 10:45 Not measured Not measured Not measured 18.9°C 15/04/2021 10:45 100.6 μS/cm 15/04/2021 10:45 Not measured Full data
Weirs Yarrawonga Weir Downstream Murray 1.5 m 15/04/2021 10:45 9143 ML/Day 15/04/2021 10:45 Not measured Not measured 16.9°C 15/04/2021 10:30 63.2 μS/cm 15/04/2021 10:30 Not measured Full data
Weirs Lock 7 Upstream Murray 22.15 m 15/04/2021 9:45 Not measured Not measured Not measured 19.4°C 15/04/2021 9:45 112.6 μS/cm 15/04/2021 9:45 Not measured Full data
Weirs Torrumbarry Weir Upstream Murray 86.05 m 15/04/2021 9:45 Not measured 37 GL 15/04/2021 8:45 Not measured 18.6°C 15/04/2021 8:45 0.00 μS/cm 15/04/2021 8:45 0.00 mm 14/04/2021 9:00 Full data
Weirs Lock 3 Upstream Murray 9.84 m 15/04/2021 9:45 Not measured Not measured Not measured Not measured Not measured Not measured Full data
Weirs Lock 9 Downstream Murray 24.21 m 15/04/2021 9:45 Not measured Not measured Not measured Not measured Not measured Not measured Full data
Weirs Lock 1 Upstream Murray 3.23 m 15/04/2021 9:45 Not measured Not measured Not measured 19.4°C 15/04/2021 9:45 235.8 μS/cm 15/04/2021 9:45 Not measured Full data
Weirs Lock 2 Downstream Murray 3.31 m 15/04/2021 9:45 Not measured Not measured Not measured Not measured Not measured Not measured Full data
Weirs Lock 9 Upstream Murray 27.32 m 15/04/2021 9:45 Not measured Not measured Not measured 19.0°C 15/04/2021 9:45 124.9 μS/cm 15/04/2021 9:45 Not measured Full data
Weirs Lock 6 Downstream Murray 16.31 m 15/04/2021 9:45 Not measured Not measured Not measured Not measured Not measured Not measured Full data
Weirs Lock 2 Upstream Murray 6.14 m 15/04/2021 9:45 Not measured Not measured Not measured 19.1°C 15/04/2021 9:45 237.9 μS/cm 15/04/2021 9:45 Not measured Full data
Weirs Lock 8 Upstream Murray 24.19 m 15/04/2021 9:45 Not measured Not measured Not measured 19.2°C 15/04/2021 9:45 111.9 μS/cm 15/04/2021 9:45 Not measured Full data
Weirs Lock 6 Upstream Murray 19.27 m 15/04/2021 9:45 Not measured Not measured Not measured 19.6°C 15/04/2021 9:45 156.0 μS/cm 15/04/2021 9:45 Not measured Full data